createdAt,value
2018-02-17T00:01:09.490Z,20.53
2018-02-17T00:03:39.418Z,25.60
2018-02-17T00:06:07.834Z,24.90
2018-02-17T00:08:35.964Z,19.10
2018-02-17T00:11:04.769Z,25.50
2018-02-17T00:13:32.910Z,23.30
2018-02-17T00:16:14.641Z,22.63
2018-02-17T00:18:45.379Z,31.17
2018-02-17T00:21:22.245Z,23.33
2018-02-17T00:23:55.767Z,28.27
2018-02-17T00:26:28.762Z,26.73
2018-02-17T00:29:02.353Z,24.47
2018-02-17T00:31:30.479Z,24.03
2018-02-17T00:34:11.184Z,24.53
2018-02-17T00:36:42.213Z,18.47
2018-02-17T00:39:10.365Z,22.03
2018-02-17T00:41:38.511Z,24.37
2018-02-17T00:44:07.109Z,25.13
2018-02-17T00:46:35.260Z,29.03
2018-02-17T00:49:03.364Z,18.40
2018-02-17T00:51:31.462Z,20.20
2018-02-17T00:53:59.581Z,25.57
2018-02-17T00:56:27.845Z,23.30
2018-02-17T00:58:56.198Z,30.27
2018-02-17T01:01:24.520Z,30.70
2018-02-17T01:03:52.677Z,26.00
2018-02-17T01:06:20.924Z,30.07
2018-02-17T01:08:49.948Z,25.73
2018-02-17T01:11:18.840Z,29.13
2018-02-17T01:13:47.713Z,27.97
2018-02-17T01:16:15.796Z,31.77
2018-02-17T01:18:43.929Z,25.23
2018-02-17T01:21:12.038Z,33.60
2018-02-17T01:23:40.146Z,24.70
2018-02-17T01:26:09.991Z,32.73
2018-02-17T01:28:38.123Z,29.80
2018-02-17T01:31:06.228Z,22.97
2018-02-17T01:33:34.344Z,23.87
2018-02-17T01:36:02.465Z,25.63
2018-02-17T01:38:30.600Z,22.17
2018-02-17T01:40:58.722Z,25.77
2018-02-17T01:43:26.823Z,24.73
2018-02-17T01:45:54.949Z,20.50
2018-02-17T01:48:23.054Z,32.83
2018-02-17T01:50:51.143Z,22.10
2018-02-17T01:53:19.275Z,28.80
2018-02-17T01:55:47.402Z,23.67
2018-02-17T01:58:15.513Z,32.53
2018-02-17T02:00:43.645Z,31.87
2018-02-17T02:03:11.767Z,28.77
2018-02-17T02:05:39.881Z,28.67
2018-02-17T02:08:08.310Z,24.80
2018-02-17T02:10:37.386Z,24.40
2018-02-17T02:13:05.496Z,26.53
2018-02-17T02:15:33.623Z,32.43
2018-02-17T02:18:01.746Z,30.73
2018-02-17T02:20:30.454Z,29.23
2018-02-17T02:22:59.531Z,25.63
2018-02-17T02:25:27.718Z,26.83
2018-02-17T02:27:55.824Z,33.00
2018-02-17T02:30:23.940Z,30.23
2018-02-17T02:32:52.050Z,22.53
2018-02-17T02:42:05.094Z,28.03
2018-02-17T02:44:33.414Z,35.10
2018-02-17T02:47:05.757Z,28.00
2018-02-17T02:49:34.892Z,30.30
2018-02-17T02:52:05.554Z,29.87
2018-02-17T02:54:37.436Z,31.40
2018-02-17T02:57:09.863Z,25.93
2018-02-17T02:59:40.008Z,36.10
2018-02-17T03:02:10.335Z,38.70
2018-02-17T03:04:38.733Z,34.47
2018-02-17T03:07:07.013Z,23.50
2018-02-17T03:09:36.146Z,24.57
2018-02-17T03:12:05.546Z,27.67
2018-02-17T03:14:33.722Z,28.60
2018-02-17T03:17:01.852Z,30.07
2018-02-17T03:19:29.983Z,30.50
2018-02-17T03:21:59.031Z,31.60
2018-02-17T03:24:27.208Z,26.43
2018-02-17T03:26:55.355Z,44.27
2018-02-17T03:29:23.494Z,30.97
2018-02-17T03:31:51.662Z,28.53
2018-02-17T03:34:20.664Z,31.87
2018-02-17T03:36:49.617Z,32.37
2018-02-17T03:39:17.793Z,24.57
2018-02-17T03:41:45.929Z,33.73
2018-02-17T03:44:14.095Z,31.33
2018-02-17T03:46:42.991Z,30.07
2018-02-17T03:49:11.143Z,29.77
2018-02-17T03:51:53.907Z,38.23
2018-02-17T03:54:33.295Z,32.83
2018-02-17T03:57:01.449Z,43.20
2018-02-17T03:59:29.565Z,34.47
2018-02-17T04:01:59.507Z,37.60
2018-02-17T04:04:27.618Z,33.73
2018-02-17T04:06:55.785Z,33.67
2018-02-17T04:09:24.701Z,32.60
2018-02-17T04:11:54.748Z,35.57
2018-02-17T04:14:22.942Z,33.17
2018-02-17T04:16:51.070Z,28.60
2018-02-17T04:19:19.225Z,34.17
2018-02-17T04:21:48.184Z,30.23
2018-02-17T04:24:17.035Z,37.17
2018-02-17T04:26:45.918Z,43.17
2018-02-17T04:29:14.817Z,32.17
2018-02-17T04:31:43.217Z,40.77
2018-02-17T04:34:12.427Z,31.17
2018-02-17T04:36:40.567Z,38.30
2018-02-17T04:39:08.677Z,42.77
2018-02-17T04:41:40.564Z,40.13
2018-02-17T04:44:09.035Z,39.77
2018-02-17T04:46:37.163Z,36.47
2018-02-17T04:49:09.010Z,32.10
2018-02-17T04:51:41.709Z,37.77
2018-02-17T04:54:14.282Z,34.13
2018-02-17T04:59:47.891Z,44.60
2018-02-17T05:05:33.341Z,47.47
2018-02-17T05:11:03.381Z,29.40
2018-02-17T05:13:31.519Z,33.73
2018-02-17T05:16:19.224Z,34.63
2018-02-17T05:18:50.911Z,43.37
2018-02-17T05:21:21.784Z,35.43
2018-02-17T05:23:51.560Z,40.33
2018-02-17T05:26:22.047Z,41.00
2018-02-17T05:28:51.802Z,37.47
2018-02-17T05:31:20.385Z,35.33
2018-02-17T05:36:56.232Z,29.73
2018-02-17T05:39:28.049Z,36.20
2018-02-17T05:44:59.343Z,36.30
2018-02-17T05:47:30.839Z,51.87
2018-02-17T05:49:59.800Z,34.23
2018-02-17T05:52:27.991Z,41.07
2018-02-17T05:54:56.211Z,43.40
2018-02-17T05:57:24.348Z,45.60
2018-02-17T05:59:52.469Z,38.17
2018-02-17T06:02:20.683Z,40.27
2018-02-17T06:04:48.851Z,40.80
2018-02-17T06:07:17.340Z,32.63
2018-02-17T06:09:45.523Z,51.43
2018-02-17T06:12:13.681Z,35.20
2018-02-17T06:14:42.851Z,39.73
2018-02-17T06:17:21.836Z,40.37
2018-02-17T06:19:53.713Z,34.27
2018-02-17T06:22:26.628Z,35.17
2018-02-17T06:24:54.778Z,44.33
2018-02-17T06:27:58.862Z,38.03
2018-02-17T06:30:35.196Z,47.20
2018-02-17T06:33:11.674Z,38.23
2018-02-17T06:35:42.480Z,41.50
2018-02-17T06:38:22.229Z,38.47
2018-02-17T06:41:05.657Z,33.30
2018-02-17T06:43:48.690Z,35.27
2018-02-17T06:46:49.472Z,35.40
2018-02-17T06:49:30.050Z,39.50
2018-02-17T07:06:10.553Z,42.63
2018-02-17T07:08:51.414Z,45.70
2018-02-17T07:14:48.141Z,37.53
2018-02-17T07:17:16.712Z,45.97
2018-02-17T07:26:04.450Z,42.27
2018-02-17T07:28:38.455Z,38.20
2018-02-17T07:31:09.368Z,34.70
2018-02-17T07:33:44.149Z,43.70
2018-02-17T07:36:12.248Z,39.10
2018-02-17T07:41:58.114Z,44.47
2018-02-17T07:44:26.278Z,36.17
2018-02-17T07:46:54.455Z,41.03
2018-02-17T07:49:23.331Z,42.80
2018-02-17T07:51:51.425Z,41.57
2018-02-17T07:54:19.503Z,48.50
2018-02-17T07:56:47.611Z,38.60
2018-02-17T07:59:15.696Z,37.53
2018-02-17T08:01:43.828Z,37.03
2018-02-17T08:04:38.220Z,39.50
2018-02-17T08:07:11.046Z,36.63
2018-02-17T08:13:23.369Z,39.80
2018-02-17T08:16:04.808Z,45.00
2018-02-17T08:18:52.159Z,54.03
2018-02-17T08:21:26.835Z,55.23
2018-02-17T08:23:56.874Z,51.17
2018-02-17T08:26:27.490Z,43.90
2018-02-17T08:28:57.911Z,40.40
2018-02-17T08:31:29.003Z,34.23
2018-02-17T08:33:59.104Z,48.73
2018-02-17T08:36:31.546Z,43.07
2018-02-17T08:39:00.271Z,40.03
2018-02-17T09:13:23.239Z,51.47
2018-02-17T09:16:14.575Z,50.53
2018-02-17T09:19:00.694Z,53.03
2018-02-17T09:24:33.073Z,47.70
2018-02-17T09:27:04.750Z,50.43
2018-02-17T09:29:32.973Z,44.10
2018-02-17T09:32:16.077Z,42.90
2018-02-17T09:34:45.278Z,47.77
2018-02-17T09:37:19.980Z,37.90
2018-02-17T10:31:43.499Z,30.23
2018-02-17T10:34:11.695Z,37.50
2018-02-17T10:36:50.513Z,31.60
2018-02-17T11:08:53.895Z,29.93
2018-02-17T12:11:43.448Z,19.53
2018-02-17T12:21:30.318Z,26.07
2018-02-17T12:24:14.235Z,32.07
2018-02-17T12:27:01.609Z,23.97
2018-02-17T12:29:56.404Z,21.97
2018-02-17T12:35:49.253Z,24.43
2018-02-17T12:38:52.712Z,24.23
2018-02-17T12:44:22.969Z,32.23
2018-02-17T13:00:46.304Z,24.63
2018-02-17T13:03:23.761Z,22.87
2018-02-17T13:06:00.596Z,27.03
2018-02-17T13:08:48.131Z,27.87
2018-02-17T13:11:24.425Z,25.40
2018-02-17T13:13:59.898Z,21.43
2018-02-17T13:25:39.563Z,17.13
2018-02-17T13:31:05.544Z,34.50
2018-02-17T13:33:59.750Z,25.87
2018-02-17T13:36:32.291Z,31.27
2018-02-17T13:39:21.494Z,23.93
2018-02-17T13:41:55.282Z,19.97
2018-02-17T13:44:28.931Z,19.33
2018-02-17T13:47:03.193Z,23.83
2018-02-17T13:49:48.141Z,12.27
2018-02-17T13:52:23.182Z,14.70
2018-02-17T13:55:04.682Z,12.23
2018-02-17T13:57:39.831Z,16.63
2018-02-17T14:02:55.648Z,14.60
2018-02-17T14:05:26.972Z,19.00
2018-02-17T14:08:00.089Z,15.43
2018-02-17T14:10:43.089Z,11.90
2018-02-17T14:13:21.740Z,12.73
2018-02-17T14:15:57.630Z,9.23
2018-02-17T14:18:37.745Z,10.80
2018-02-17T14:21:17.342Z,14.43
2018-02-17T14:23:49.728Z,17.50
2018-02-17T14:26:37.419Z,14.43
2018-02-17T14:29:16.601Z,17.50
2018-02-17T14:31:49.906Z,17.10
2018-02-17T14:34:22.164Z,10.17
2018-02-17T14:36:56.267Z,11.13
2018-02-17T14:39:31.697Z,14.90
2018-02-17T14:42:09.181Z,8.77
2018-02-17T14:44:43.745Z,10.97
2018-02-17T14:47:27.644Z,9.03
2018-02-17T14:50:01.377Z,15.57
2018-02-17T14:52:36.849Z,10.43
2018-02-17T14:55:08.315Z,14.83
2018-02-17T14:57:44.660Z,15.13
2018-02-17T15:00:20.630Z,8.47
2018-02-17T15:02:51.219Z,11.10
2018-02-17T15:05:31.594Z,20.53
2018-02-17T15:08:12.838Z,30.03
2018-02-17T15:10:48.312Z,24.70
2018-02-17T15:13:27.721Z,23.03
2018-02-17T15:19:20.540Z,27.83
2018-02-17T15:22:05.985Z,32.57
2018-02-17T15:27:37.653Z,27.57
2018-02-17T15:32:49.491Z,31.07
2018-02-17T15:35:21.754Z,33.10
2018-02-17T15:37:51.923Z,27.07
2018-02-17T15:40:30.713Z,26.13
2018-02-17T15:43:03.427Z,33.30
2018-02-17T15:45:36.497Z,23.43
2018-02-17T15:48:11.600Z,28.67
2018-02-17T15:50:46.907Z,30.40
2018-02-17T15:53:20.256Z,30.00
2018-02-17T15:55:51.783Z,29.00
2018-02-17T15:58:30.484Z,26.10
2018-02-17T16:01:07.300Z,24.80
2018-02-17T16:03:35.493Z,30.70
2018-02-17T16:06:04.375Z,28.63
2018-02-17T16:08:33.238Z,30.13
2018-02-17T16:11:09.599Z,30.37
2018-02-17T16:54:44.998Z,36.70
2018-02-17T16:57:16.559Z,34.70
2018-02-17T16:59:46.208Z,43.27
2018-02-17T17:02:14.381Z,48.03
2018-02-17T17:04:42.475Z,44.17
2018-02-17T17:07:10.590Z,36.87
2018-02-17T17:09:38.705Z,44.13
2018-02-17T17:12:07.652Z,30.97
2018-02-17T17:14:35.769Z,37.53
2018-02-17T17:17:08.546Z,41.20
2018-02-17T17:19:36.720Z,41.30
2018-02-17T17:22:04.829Z,39.90
2018-02-17T17:24:32.964Z,49.73
2018-02-17T17:27:02.034Z,35.40
2018-02-17T17:29:43.789Z,35.27
2018-02-17T17:32:11.880Z,31.83
2018-02-17T17:34:40.888Z,33.23
2018-02-17T17:37:12.213Z,38.10
2018-02-17T17:39:40.334Z,35.37
2018-02-17T17:42:09.949Z,40.30
2018-02-17T17:44:38.061Z,39.70
2018-02-17T17:47:06.174Z,43.53
2018-02-17T17:49:34.276Z,39.60
2018-02-17T17:52:03.143Z,36.63
2018-02-17T17:54:31.239Z,42.30
2018-02-17T17:57:00.220Z,36.93
2018-02-17T17:59:29.527Z,39.73
2018-02-17T18:01:58.400Z,33.20
2018-02-17T18:04:26.509Z,41.73
2018-02-17T18:06:55.629Z,34.80
2018-02-17T18:09:23.754Z,38.83
2018-02-17T18:11:51.872Z,32.67
2018-02-17T18:14:19.961Z,40.57
2018-02-17T18:16:48.079Z,46.13
2018-02-17T18:19:16.213Z,39.17
2018-02-17T18:21:44.334Z,33.07
2018-02-17T18:24:13.201Z,41.10
2018-02-17T18:26:41.300Z,40.37
2018-02-17T18:29:09.445Z,42.13
2018-02-17T18:31:37.571Z,44.30
2018-02-17T18:34:05.663Z,43.53
2018-02-17T18:36:33.779Z,34.33
2018-02-17T18:39:02.649Z,42.43
2018-02-17T18:41:30.737Z,42.20
2018-02-17T18:43:58.840Z,32.20
2018-02-17T18:46:26.946Z,39.83
2018-02-17T18:48:55.072Z,44.23
2018-02-17T18:51:25.115Z,36.13
2018-02-17T18:53:53.217Z,43.67
2018-02-17T18:56:21.325Z,51.27
2018-02-17T18:58:49.458Z,55.67
2018-02-17T19:01:17.564Z,53.80
2018-02-17T19:03:45.663Z,52.40
2018-02-17T19:06:13.781Z,50.57
2018-02-17T19:08:43.963Z,55.20
2018-02-17T19:11:12.081Z,49.73
2018-02-17T19:13:40.185Z,47.60
2018-02-17T19:16:08.293Z,41.13
2018-02-17T19:18:39.407Z,48.13
2018-02-17T19:21:07.520Z,47.93
2018-02-17T19:23:35.631Z,39.07
2018-02-17T19:26:03.740Z,38.23
2018-02-17T19:28:31.849Z,36.00
2018-02-17T19:31:06.598Z,56.70
2018-02-17T19:34:01.667Z,66.00
2018-02-17T19:36:29.790Z,61.90
2018-02-17T19:38:57.981Z,59.33
2018-02-17T19:41:26.113Z,63.70
2018-02-17T19:43:54.226Z,60.53
2018-02-17T19:46:23.100Z,57.67
2018-02-17T19:48:51.179Z,46.53
2018-02-17T19:51:20.037Z,53.00
2018-02-17T19:53:48.185Z,44.20
2018-02-17T19:56:16.276Z,47.27
2018-02-17T19:58:44.393Z,45.63
2018-02-17T20:01:13.252Z,46.77
2018-02-17T20:03:41.376Z,49.90
2018-02-17T20:06:09.472Z,45.90
2018-02-17T20:08:37.569Z,49.07
2018-02-17T20:11:05.688Z,43.00
2018-02-17T20:13:33.786Z,65.33
2018-02-17T20:16:01.889Z,53.67
2018-02-17T20:18:29.988Z,44.03
2018-02-17T20:20:58.887Z,47.30
2018-02-17T20:23:27.726Z,47.07
2018-02-17T20:25:55.838Z,43.70
2018-02-17T20:28:24.720Z,45.87
2018-02-17T20:30:53.048Z,53.53
2018-02-17T20:33:21.179Z,48.03
2018-02-17T20:35:50.044Z,49.73
2018-02-17T20:38:18.129Z,51.03
2018-02-17T20:40:46.265Z,83.50
2018-02-17T20:43:14.393Z,84.03
2018-02-17T20:45:42.507Z,52.20
2018-02-17T20:48:10.595Z,44.13
2018-02-17T20:50:38.712Z,51.43
2018-02-17T20:53:06.827Z,50.60
2018-02-17T20:55:34.924Z,46.83
2018-02-17T20:58:04.053Z,58.83
2018-02-17T21:00:32.923Z,53.73
2018-02-17T21:03:01.069Z,59.33
2018-02-17T21:05:29.338Z,52.23
2018-02-17T21:07:57.464Z,48.87
2018-02-17T21:10:25.589Z,47.70
2018-02-17T21:12:53.688Z,53.57
2018-02-17T21:15:21.804Z,52.60
2018-02-17T21:17:49.908Z,51.33
2018-02-17T21:20:18.016Z,51.90
2018-02-17T21:22:46.104Z,58.87
2018-02-17T21:25:14.993Z,55.83
2018-02-17T21:27:43.096Z,53.10
2018-02-17T21:30:11.185Z,52.43
2018-02-17T21:32:40.516Z,49.77
2018-02-17T21:35:08.620Z,51.70
2018-02-17T21:37:36.732Z,56.03
2018-02-17T21:40:05.752Z,55.13
2018-02-17T21:42:33.855Z,46.57
2018-02-17T21:45:01.966Z,47.47
2018-02-17T21:47:30.072Z,50.47
2018-02-17T21:49:58.172Z,51.07
2018-02-17T21:52:27.760Z,51.37
2018-02-17T21:54:55.878Z,40.77
2018-02-17T21:57:27.508Z,39.93
2018-02-17T21:59:55.633Z,45.73
2018-02-17T22:02:23.737Z,40.73
2018-02-17T22:04:51.845Z,39.90
2018-02-17T22:07:19.961Z,42.80
2018-02-17T22:09:48.049Z,51.80
2018-02-17T22:12:16.153Z,52.57
2018-02-17T22:14:45.194Z,42.67
2018-02-17T22:17:13.308Z,39.73
2018-02-17T22:19:42.171Z,48.33
2018-02-17T22:22:10.266Z,47.07
2018-02-17T22:24:38.402Z,48.53
2018-02-17T22:27:06.486Z,45.10
2018-02-17T22:29:34.610Z,42.03
2018-02-17T22:32:02.703Z,43.40
2018-02-17T22:34:30.816Z,43.47
2018-02-17T22:36:58.907Z,32.57
2018-02-17T22:39:27.024Z,39.57
2018-02-17T22:41:55.123Z,38.83
2018-02-17T22:44:23.258Z,42.77
2018-02-17T22:46:54.503Z,37.30
2018-02-17T22:49:22.603Z,43.10
2018-02-17T22:51:50.722Z,41.80
2018-02-17T22:54:18.808Z,47.67
2018-02-17T22:56:46.920Z,45.33
2018-02-17T22:59:15.030Z,35.80
2018-02-17T23:01:43.897Z,39.53
2018-02-17T23:04:12.033Z,42.10
2018-02-17T23:06:40.129Z,40.50
2018-02-17T23:09:08.273Z,39.77
2018-02-17T23:11:36.362Z,43.80
2018-02-17T23:14:04.465Z,41.00
2018-02-17T23:16:32.540Z,38.07
2018-02-17T23:19:00.657Z,46.40
2018-02-17T23:21:28.760Z,46.87
2018-02-17T23:23:56.849Z,46.47
2018-02-17T23:26:25.012Z,36.87
2018-02-17T23:28:53.109Z,39.73
2018-02-17T23:31:21.225Z,41.97
2018-02-17T23:33:49.315Z,47.47
2018-02-17T23:36:17.429Z,41.10
2018-02-17T23:38:46.280Z,58.37
2018-02-17T23:41:14.388Z,46.70
2018-02-17T23:43:42.483Z,47.87
2018-02-17T23:46:10.577Z,50.10
2018-02-17T23:48:38.700Z,55.13
2018-02-17T23:51:06.815Z,41.60
2018-02-17T23:53:34.928Z,37.27
2018-02-17T23:56:03.040Z,45.37
2018-02-17T23:58:31.160Z,37.60
